sensor_id;sensor_type;location;lat;lon;timestamp;P1;durP1;ratioP1;P2;durP2;ratioP2
11614;SDS011;5863;52.832;4.758;2024-01-11T00:00:11;22.43;;;12.83;;
11614;SDS011;5863;52.832;4.758;2024-01-11T00:02:38;20.67;;;12.43;;
11614;SDS011;5863;52.832;4.758;2024-01-11T00:05:05;19.23;;;12.50;;
11614;SDS011;5863;52.832;4.758;2024-01-11T00:07:32;25.80;;;13.43;;
11614;SDS011;5863;52.832;4.758;2024-01-11T00:10:00;20.50;;;12.70;;
11614;SDS011;5863;52.832;4.758;2024-01-11T00:12:28;21.10;;;13.10;;
11614;SDS011;5863;52.832;4.758;2024-01-11T00:14:56;19.93;;;12.40;;
11614;SDS011;5863;52.832;4.758;2024-01-11T00:17:25;18.73;;;12.47;;
11614;SDS011;5863;52.832;4.758;2024-01-11T00:19:52;20.83;;;13.03;;
11614;SDS011;5863;52.832;4.758;2024-01-11T00:22:19;21.90;;;12.97;;
11614;SDS011;5863;52.832;4.758;2024-01-11T00:24:46;21.63;;;13.90;;
11614;SDS011;5863;52.832;4.758;2024-01-11T00:27:13;20.23;;;12.70;;
11614;SDS011;5863;52.832;4.758;2024-01-11T00:29:39;24.80;;;13.40;;
11614;SDS011;5863;52.832;4.758;2024-01-11T00:32:06;24.00;;;14.27;;
11614;SDS011;5863;52.832;4.758;2024-01-11T00:34:35;21.23;;;13.63;;
11614;SDS011;5863;52.832;4.758;2024-01-11T00:37:02;21.53;;;13.77;;
11614;SDS011;5863;52.832;4.758;2024-01-11T00:39:28;22.37;;;13.03;;
11614;SDS011;5863;52.832;4.758;2024-01-11T00:41:55;24.60;;;14.67;;
11614;SDS011;5863;52.832;4.758;2024-01-11T00:44:22;22.03;;;13.17;;
11614;SDS011;5863;52.832;4.758;2024-01-11T00:46:49;24.20;;;15.13;;
11614;SDS011;5863;52.832;4.758;2024-01-11T00:49:16;24.60;;;14.37;;
11614;SDS011;5863;52.832;4.758;2024-01-11T00:51:44;22.20;;;13.53;;
11614;SDS011;5863;52.832;4.758;2024-01-11T00:54:11;21.93;;;13.33;;
11614;SDS011;5863;52.832;4.758;2024-01-11T00:56:38;21.97;;;14.33;;
11614;SDS011;5863;52.832;4.758;2024-01-11T00:59:05;23.67;;;14.57;;
11614;SDS011;5863;52.832;4.758;2024-01-11T01:01:31;24.30;;;14.30;;
11614;SDS011;5863;52.832;4.758;2024-01-11T01:03:58;25.70;;;15.43;;
11614;SDS011;5863;52.832;4.758;2024-01-11T01:06:25;25.83;;;14.93;;
11614;SDS011;5863;52.832;4.758;2024-01-11T01:08:53;24.43;;;14.60;;
11614;SDS011;5863;52.832;4.758;2024-01-11T01:11:21;24.03;;;15.57;;
11614;SDS011;5863;52.832;4.758;2024-01-11T01:13:48;24.80;;;15.17;;
11614;SDS011;5863;52.832;4.758;2024-01-11T01:16:15;25.00;;;14.53;;
11614;SDS011;5863;52.832;4.758;2024-01-11T01:18:42;24.47;;;15.20;;
11614;SDS011;5863;52.832;4.758;2024-01-11T01:21:09;26.97;;;14.53;;
11614;SDS011;5863;52.832;4.758;2024-01-11T01:23:36;25.57;;;15.43;;
11614;SDS011;5863;52.832;4.758;2024-01-11T01:26:06;23.67;;;14.87;;
11614;SDS011;5863;52.832;4.758;2024-01-11T01:28:33;25.33;;;14.63;;
11614;SDS011;5863;52.832;4.758;2024-01-11T01:31:01;24.23;;;15.27;;
11614;SDS011;5863;52.832;4.758;2024-01-11T01:33:28;25.63;;;14.87;;
11614;SDS011;5863;52.832;4.758;2024-01-11T01:35:55;23.73;;;14.33;;
11614;SDS011;5863;52.832;4.758;2024-01-11T01:38:22;22.40;;;13.87;;
11614;SDS011;5863;52.832;4.758;2024-01-11T01:40:49;24.50;;;15.13;;
11614;SDS011;5863;52.832;4.758;2024-01-11T01:43:17;29.13;;;16.30;;
11614;SDS011;5863;52.832;4.758;2024-01-11T01:45:44;24.80;;;15.77;;
11614;SDS011;5863;52.832;4.758;2024-01-11T01:48:11;22.73;;;14.30;;
11614;SDS011;5863;52.832;4.758;2024-01-11T01:50:38;26.57;;;16.17;;
11614;SDS011;5863;52.832;4.758;2024-01-11T01:53:05;23.20;;;15.67;;
11614;SDS011;5863;52.832;4.758;2024-01-11T01:55:33;24.43;;;15.43;;
11614;SDS011;5863;52.832;4.758;2024-01-11T01:58:00;26.63;;;15.27;;
11614;SDS011;5863;52.832;4.758;2024-01-11T02:00:31;25.40;;;15.30;;
11614;SDS011;5863;52.832;4.758;2024-01-11T02:02:58;24.27;;;15.27;;
11614;SDS011;5863;52.832;4.758;2024-01-11T02:05:25;25.37;;;15.67;;
11614;SDS011;5863;52.832;4.758;2024-01-11T02:07:52;27.17;;;16.20;;
11614;SDS011;5863;52.832;4.758;2024-01-11T02:10:19;27.47;;;16.27;;
11614;SDS011;5863;52.832;4.758;2024-01-11T02:12:46;25.40;;;15.20;;
11614;SDS011;5863;52.832;4.758;2024-01-11T02:15:13;25.83;;;15.87;;
11614;SDS011;5863;52.832;4.758;2024-01-11T02:17:42;26.73;;;16.70;;
11614;SDS011;5863;52.832;4.758;2024-01-11T02:20:09;25.57;;;16.00;;
11614;SDS011;5863;52.832;4.758;2024-01-11T02:22:38;25.40;;;15.60;;
11614;SDS011;5863;52.832;4.758;2024-01-11T02:25:08;25.63;;;16.30;;
11614;SDS011;5863;52.832;4.758;2024-01-11T02:27:45;24.63;;;15.93;;
11614;SDS011;5863;52.832;4.758;2024-01-11T02:30:13;28.87;;;17.13;;
11614;SDS011;5863;52.832;4.758;2024-01-11T02:32:40;25.97;;;16.30;;
11614;SDS011;5863;52.832;4.758;2024-01-11T02:35:09;26.93;;;16.50;;
11614;SDS011;5863;52.832;4.758;2024-01-11T02:37:36;23.13;;;15.30;;
11614;SDS011;5863;52.832;4.758;2024-01-11T02:40:05;24.43;;;15.43;;
11614;SDS011;5863;52.832;4.758;2024-01-11T02:42:35;28.20;;;16.90;;
11614;SDS011;5863;52.832;4.758;2024-01-11T02:45:02;27.57;;;15.97;;
11614;SDS011;5863;52.832;4.758;2024-01-11T02:47:30;27.37;;;16.30;;
11614;SDS011;5863;52.832;4.758;2024-01-11T02:49:57;30.63;;;16.50;;
11614;SDS011;5863;52.832;4.758;2024-01-11T02:52:24;27.37;;;15.47;;
11614;SDS011;5863;52.832;4.758;2024-01-11T02:54:51;26.30;;;16.53;;
11614;SDS011;5863;52.832;4.758;2024-01-11T02:57:17;25.83;;;15.27;;
11614;SDS011;5863;52.832;4.758;2024-01-11T02:59:46;25.83;;;15.50;;
11614;SDS011;5863;52.832;4.758;2024-01-11T03:02:12;26.63;;;15.73;;
11614;SDS011;5863;52.832;4.758;2024-01-11T03:04:39;29.30;;;15.93;;
11614;SDS011;5863;52.832;4.758;2024-01-11T03:07:06;26.93;;;16.80;;
11614;SDS011;5863;52.832;4.758;2024-01-11T03:09:33;26.77;;;15.83;;
11614;SDS011;5863;52.832;4.758;2024-01-11T03:12:00;28.97;;;16.27;;
11614;SDS011;5863;52.832;4.758;2024-01-11T03:14:27;25.83;;;15.50;;
11614;SDS011;5863;52.832;4.758;2024-01-11T03:16:55;24.20;;;14.73;;
11614;SDS011;5863;52.832;4.758;2024-01-11T03:19:22;28.97;;;16.90;;
11614;SDS011;5863;52.832;4.758;2024-01-11T03:21:49;27.53;;;16.60;;
11614;SDS011;5863;52.832;4.758;2024-01-11T03:24:16;25.37;;;15.40;;
11614;SDS011;5863;52.832;4.758;2024-01-11T03:26:43;26.77;;;16.20;;
11614;SDS011;5863;52.832;4.758;2024-01-11T03:29:09;27.23;;;15.47;;
11614;SDS011;5863;52.832;4.758;2024-01-11T03:31:36;26.23;;;16.40;;
11614;SDS011;5863;52.832;4.758;2024-01-11T03:34:08;26.13;;;15.63;;
11614;SDS011;5863;52.832;4.758;2024-01-11T03:36:35;25.40;;;15.87;;
11614;SDS011;5863;52.832;4.758;2024-01-11T03:39:02;23.43;;;14.53;;
11614;SDS011;5863;52.832;4.758;2024-01-11T03:41:29;23.67;;;14.07;;
11614;SDS011;5863;52.832;4.758;2024-01-11T03:43:56;25.03;;;14.60;;
11614;SDS011;5863;52.832;4.758;2024-01-11T03:46:23;23.77;;;14.87;;
11614;SDS011;5863;52.832;4.758;2024-01-11T03:48:50;24.67;;;14.33;;
11614;SDS011;5863;52.832;4.758;2024-01-11T03:51:18;25.07;;;14.20;;
11614;SDS011;5863;52.832;4.758;2024-01-11T03:53:45;22.83;;;13.93;;
11614;SDS011;5863;52.832;4.758;2024-01-11T03:56:11;24.70;;;14.30;;
11614;SDS011;5863;52.832;4.758;2024-01-11T03:58:38;23.73;;;13.37;;
11614;SDS011;5863;52.832;4.758;2024-01-11T04:01:06;23.97;;;13.70;;
11614;SDS011;5863;52.832;4.758;2024-01-11T04:03:35;21.13;;;12.50;;
11614;SDS011;5863;52.832;4.758;2024-01-11T04:06:05;21.20;;;12.67;;
11614;SDS011;5863;52.832;4.758;2024-01-11T04:08:33;24.00;;;13.20;;
11614;SDS011;5863;52.832;4.758;2024-01-11T04:11:01;21.73;;;13.53;;
11614;SDS011;5863;52.832;4.758;2024-01-11T04:13:29;20.43;;;12.87;;
11614;SDS011;5863;52.832;4.758;2024-01-11T04:15:56;20.53;;;12.70;;
11614;SDS011;5863;52.832;4.758;2024-01-11T04:18:22;23.97;;;13.97;;
11614;SDS011;5863;52.832;4.758;2024-01-11T04:20:49;23.00;;;12.93;;
11614;SDS011;5863;52.832;4.758;2024-01-11T04:23:16;23.10;;;12.63;;
11614;SDS011;5863;52.832;4.758;2024-01-11T04:25:44;23.93;;;12.77;;
11614;SDS011;5863;52.832;4.758;2024-01-11T04:28:11;21.67;;;13.37;;
11614;SDS011;5863;52.832;4.758;2024-01-11T04:30:38;22.73;;;13.53;;
11614;SDS011;5863;52.832;4.758;2024-01-11T04:33:05;21.13;;;13.63;;
11614;SDS011;5863;52.832;4.758;2024-01-11T04:35:32;21.20;;;14.23;;
11614;SDS011;5863;52.832;4.758;2024-01-11T04:37:59;21.50;;;13.67;;
11614;SDS011;5863;52.832;4.758;2024-01-11T04:40:26;21.40;;;13.33;;
11614;SDS011;5863;52.832;4.758;2024-01-11T04:42:54;22.93;;;13.57;;
11614;SDS011;5863;52.832;4.758;2024-01-11T04:45:21;24.13;;;14.30;;
11614;SDS011;5863;52.832;4.758;2024-01-11T04:47:49;24.63;;;13.97;;
11614;SDS011;5863;52.832;4.758;2024-01-11T04:50:16;24.00;;;13.73;;
11614;SDS011;5863;52.832;4.758;2024-01-11T04:52:46;24.47;;;14.20;;
11614;SDS011;5863;52.832;4.758;2024-01-11T04:55:13;23.37;;;14.57;;
11614;SDS011;5863;52.832;4.758;2024-01-11T04:57:40;25.20;;;14.47;;
11614;SDS011;5863;52.832;4.758;2024-01-11T05:00:08;21.60;;;14.17;;
11614;SDS011;5863;52.832;4.758;2024-01-11T05:02:36;24.03;;;14.43;;
11614;SDS011;5863;52.832;4.758;2024-01-11T05:05:03;27.97;;;14.50;;
11614;SDS011;5863;52.832;4.758;2024-01-11T05:07:31;23.10;;;14.47;;
11614;SDS011;5863;52.832;4.758;2024-01-11T05:09:59;20.60;;;13.47;;
11614;SDS011;5863;52.832;4.758;2024-01-11T05:12:26;25.47;;;14.70;;
11614;SDS011;5863;52.832;4.758;2024-01-11T05:14:53;25.43;;;15.07;;
11614;SDS011;5863;52.832;4.758;2024-01-11T05:17:21;23.87;;;14.27;;
11614;SDS011;5863;52.832;4.758;2024-01-11T05:19:48;24.20;;;14.33;;
11614;SDS011;5863;52.832;4.758;2024-01-11T05:22:15;24.13;;;14.17;;
11614;SDS011;5863;52.832;4.758;2024-01-11T05:24:42;25.13;;;14.67;;
11614;SDS011;5863;52.832;4.758;2024-01-11T05:27:09;24.00;;;15.23;;
11614;SDS011;5863;52.832;4.758;2024-01-11T05:29:36;25.33;;;14.90;;
11614;SDS011;5863;52.832;4.758;2024-01-11T05:32:03;20.70;;;13.60;;
11614;SDS011;5863;52.832;4.758;2024-01-11T05:34:32;25.83;;;15.20;;
11614;SDS011;5863;52.832;4.758;2024-01-11T05:36:59;24.73;;;13.97;;
11614;SDS011;5863;52.832;4.758;2024-01-11T05:39:26;23.20;;;14.00;;
11614;SDS011;5863;52.832;4.758;2024-01-11T05:41:52;25.67;;;14.90;;
11614;SDS011;5863;52.832;4.758;2024-01-11T05:44:19;24.77;;;15.50;;
11614;SDS011;5863;52.832;4.758;2024-01-11T05:46:46;21.57;;;13.47;;
11614;SDS011;5863;52.832;4.758;2024-01-11T05:49:13;26.77;;;15.30;;
11614;SDS011;5863;52.832;4.758;2024-01-11T05:51:41;25.17;;;16.23;;
11614;SDS011;5863;52.832;4.758;2024-01-11T05:54:08;24.37;;;15.00;;
11614;SDS011;5863;52.832;4.758;2024-01-11T05:56:35;26.20;;;15.87;;
11614;SDS011;5863;52.832;4.758;2024-01-11T05:59:02;28.43;;;15.73;;
11614;SDS011;5863;52.832;4.758;2024-01-11T06:01:29;25.50;;;15.70;;
11614;SDS011;5863;52.832;4.758;2024-01-11T06:03:57;25.93;;;16.40;;
11614;SDS011;5863;52.832;4.758;2024-01-11T06:06:23;25.80;;;15.40;;
11614;SDS011;5863;52.832;4.758;2024-01-11T06:08:52;26.47;;;15.70;;
11614;SDS011;5863;52.832;4.758;2024-01-11T06:11:18;26.93;;;15.67;;
11614;SDS011;5863;52.832;4.758;2024-01-11T06:13:45;24.13;;;14.90;;
11614;SDS011;5863;52.832;4.758;2024-01-11T06:16:12;24.33;;;14.43;;
11614;SDS011;5863;52.832;4.758;2024-01-11T06:18:39;22.97;;;14.10;;
11614;SDS011;5863;52.832;4.758;2024-01-11T06:21:06;23.87;;;14.83;;
11614;SDS011;5863;52.832;4.758;2024-01-11T06:23:33;27.77;;;15.30;;
11614;SDS011;5863;52.832;4.758;2024-01-11T06:26:01;25.57;;;15.43;;
11614;SDS011;5863;52.832;4.758;2024-01-11T06:28:28;24.57;;;14.63;;
11614;SDS011;5863;52.832;4.758;2024-01-11T06:30:55;26.30;;;15.23;;
11614;SDS011;5863;52.832;4.758;2024-01-11T06:33:22;23.97;;;14.47;;
11614;SDS011;5863;52.832;4.758;2024-01-11T06:35:49;24.10;;;14.40;;
11614;SDS011;5863;52.832;4.758;2024-01-11T06:38:15;24.47;;;14.80;;
11614;SDS011;5863;52.832;4.758;2024-01-11T06:40:42;23.03;;;15.07;;
11614;SDS011;5863;52.832;4.758;2024-01-11T06:43:10;23.03;;;15.00;;
11614;SDS011;5863;52.832;4.758;2024-01-11T06:45:37;25.03;;;15.40;;
11614;SDS011;5863;52.832;4.758;2024-01-11T06:48:05;27.73;;;16.23;;
11614;SDS011;5863;52.832;4.758;2024-01-11T06:50:32;25.33;;;16.10;;
11614;SDS011;5863;52.832;4.758;2024-01-11T06:52:59;24.40;;;14.73;;
11614;SDS011;5863;52.832;4.758;2024-01-11T06:55:26;25.97;;;16.17;;
11614;SDS011;5863;52.832;4.758;2024-01-11T06:57:52;26.47;;;15.77;;
11614;SDS011;5863;52.832;4.758;2024-01-11T07:00:20;27.30;;;16.50;;
11614;SDS011;5863;52.832;4.758;2024-01-11T07:02:47;23.83;;;15.83;;
11614;SDS011;5863;52.832;4.758;2024-01-11T07:05:14;25.30;;;17.10;;
11614;SDS011;5863;52.832;4.758;2024-01-11T07:07:41;25.83;;;15.63;;
11614;SDS011;5863;52.832;4.758;2024-01-11T07:10:09;23.67;;;15.57;;
11614;SDS011;5863;52.832;4.758;2024-01-11T07:12:36;26.67;;;16.90;;
11614;SDS011;5863;52.832;4.758;2024-01-11T07:15:04;26.03;;;16.13;;
11614;SDS011;5863;52.832;4.758;2024-01-11T07:17:34;25.07;;;16.93;;
11614;SDS011;5863;52.832;4.758;2024-01-11T07:20:01;26.10;;;15.97;;
11614;SDS011;5863;52.832;4.758;2024-01-11T07:22:29;23.23;;;16.13;;
11614;SDS011;5863;52.832;4.758;2024-01-11T07:24:56;28.07;;;16.83;;
11614;SDS011;5863;52.832;4.758;2024-01-11T07:27:23;26.17;;;16.03;;
11614;SDS011;5863;52.832;4.758;2024-01-11T07:29:50;24.97;;;16.53;;
11614;SDS011;5863;52.832;4.758;2024-01-11T07:32:17;27.17;;;16.23;;
11614;SDS011;5863;52.832;4.758;2024-01-11T07:34:45;28.23;;;16.63;;
11614;SDS011;5863;52.832;4.758;2024-01-11T07:37:12;26.30;;;16.60;;
11614;SDS011;5863;52.832;4.758;2024-01-11T07:39:39;24.73;;;16.07;;
11614;SDS011;5863;52.832;4.758;2024-01-11T07:42:06;27.37;;;17.03;;
11614;SDS011;5863;52.832;4.758;2024-01-11T07:44:33;28.73;;;18.07;;
11614;SDS011;5863;52.832;4.758;2024-01-11T07:47:00;29.97;;;17.97;;
11614;SDS011;5863;52.832;4.758;2024-01-11T07:49:26;30.77;;;18.10;;
11614;SDS011;5863;52.832;4.758;2024-01-11T07:51:55;29.50;;;18.00;;
11614;SDS011;5863;52.832;4.758;2024-01-11T07:54:21;26.67;;;17.20;;
11614;SDS011;5863;52.832;4.758;2024-01-11T07:56:48;28.57;;;18.70;;
11614;SDS011;5863;52.832;4.758;2024-01-11T07:59:15;27.70;;;18.30;;
11614;SDS011;5863;52.832;4.758;2024-01-11T08:01:42;29.73;;;18.03;;
11614;SDS011;5863;52.832;4.758;2024-01-11T08:04:10;33.20;;;19.33;;
11614;SDS011;5863;52.832;4.758;2024-01-11T08:06:37;31.97;;;21.03;;
11614;SDS011;5863;52.832;4.758;2024-01-11T08:09:05;28.50;;;19.07;;
11614;SDS011;5863;52.832;4.758;2024-01-11T08:11:35;30.30;;;20.00;;
11614;SDS011;5863;52.832;4.758;2024-01-11T08:14:02;30.70;;;19.20;;
11614;SDS011;5863;52.832;4.758;2024-01-11T08:16:30;30.73;;;19.77;;
11614;SDS011;5863;52.832;4.758;2024-01-11T08:18:57;30.73;;;20.50;;
11614;SDS011;5863;52.832;4.758;2024-01-11T08:21:25;31.70;;;20.87;;
11614;SDS011;5863;52.832;4.758;2024-01-11T08:23:53;32.87;;;20.63;;
11614;SDS011;5863;52.832;4.758;2024-01-11T08:26:21;29.53;;;20.37;;
11614;SDS011;5863;52.832;4.758;2024-01-11T08:28:48;29.17;;;19.70;;
11614;SDS011;5863;52.832;4.758;2024-01-11T08:31:15;31.90;;;20.10;;
11614;SDS011;5863;52.832;4.758;2024-01-11T08:33:42;31.20;;;19.43;;
11614;SDS011;5863;52.832;4.758;2024-01-11T08:36:10;33.13;;;19.73;;
11614;SDS011;5863;52.832;4.758;2024-01-11T08:38:37;31.40;;;19.47;;
11614;SDS011;5863;52.832;4.758;2024-01-11T08:41:04;28.80;;;19.50;;
11614;SDS011;5863;52.832;4.758;2024-01-11T08:43:33;28.80;;;18.73;;
11614;SDS011;5863;52.832;4.758;2024-01-11T08:46:00;25.47;;;17.73;;
11614;SDS011;5863;52.832;4.758;2024-01-11T08:48:27;29.10;;;18.03;;
11614;SDS011;5863;52.832;4.758;2024-01-11T08:50:54;25.37;;;17.47;;
11614;SDS011;5863;52.832;4.758;2024-01-11T08:53:21;26.87;;;17.90;;
11614;SDS011;5863;52.832;4.758;2024-01-11T08:55:48;27.80;;;18.93;;
11614;SDS011;5863;52.832;4.758;2024-01-11T08:58:15;26.40;;;18.10;;
11614;SDS011;5863;52.832;4.758;2024-01-11T09:00:43;29.90;;;19.50;;
11614;SDS011;5863;52.832;4.758;2024-01-11T09:03:10;31.47;;;19.53;;
11614;SDS011;5863;52.832;4.758;2024-01-11T09:05:38;30.17;;;18.07;;
11614;SDS011;5863;52.832;4.758;2024-01-11T09:08:05;32.67;;;19.33;;
11614;SDS011;5863;52.832;4.758;2024-01-11T09:10:33;34.30;;;19.20;;
11614;SDS011;5863;52.832;4.758;2024-01-11T09:13:00;34.30;;;19.53;;
11614;SDS011;5863;52.832;4.758;2024-01-11T09:15:27;31.70;;;18.87;;
11614;SDS011;5863;52.832;4.758;2024-01-11T09:17:55;32.67;;;19.57;;
11614;SDS011;5863;52.832;4.758;2024-01-11T09:20:22;35.13;;;20.00;;
11614;SDS011;5863;52.832;4.758;2024-01-11T09:22:49;30.23;;;18.73;;
11614;SDS011;5863;52.832;4.758;2024-01-11T09:25:15;33.43;;;19.30;;
11614;SDS011;5863;52.832;4.758;2024-01-11T09:27:42;33.33;;;19.27;;
11614;SDS011;5863;52.832;4.758;2024-01-11T09:30:09;34.80;;;20.87;;
11614;SDS011;5863;52.832;4.758;2024-01-11T09:32:37;32.27;;;19.57;;
11614;SDS011;5863;52.832;4.758;2024-01-11T09:35:05;31.40;;;19.77;;
11614;SDS011;5863;52.832;4.758;2024-01-11T09:37:32;30.77;;;18.80;;
11614;SDS011;5863;52.832;4.758;2024-01-11T09:39:59;32.00;;;18.70;;
11614;SDS011;5863;52.832;4.758;2024-01-11T09:42:26;29.33;;;17.83;;
11614;SDS011;5863;52.832;4.758;2024-01-11T09:44:55;28.70;;;18.70;;
11614;SDS011;5863;52.832;4.758;2024-01-11T09:47:22;30.13;;;18.13;;
11614;SDS011;5863;52.832;4.758;2024-01-11T09:49:53;30.10;;;19.17;;
11614;SDS011;5863;52.832;4.758;2024-01-11T09:52:22;28.30;;;17.07;;
11614;SDS011;5863;52.832;4.758;2024-01-11T09:54:52;26.60;;;16.77;;
11614;SDS011;5863;52.832;4.758;2024-01-11T09:57:21;28.23;;;17.43;;
11614;SDS011;5863;52.832;4.758;2024-01-11T09:59:51;24.77;;;16.37;;
11614;SDS011;5863;52.832;4.758;2024-01-11T10:02:20;26.47;;;16.20;;
11614;SDS011;5863;52.832;4.758;2024-01-11T10:04:48;25.37;;;16.53;;
11614;SDS011;5863;52.832;4.758;2024-01-11T10:07:17;26.70;;;16.90;;
11614;SDS011;5863;52.832;4.758;2024-01-11T10:09:49;24.70;;;16.13;;
11614;SDS011;5863;52.832;4.758;2024-01-11T10:12:17;23.93;;;14.77;;
11614;SDS011;5863;52.832;4.758;2024-01-11T10:14:45;22.87;;;15.20;;
11614;SDS011;5863;52.832;4.758;2024-01-11T10:17:12;21.57;;;15.20;;
11614;SDS011;5863;52.832;4.758;2024-01-11T10:19:39;21.70;;;14.63;;
11614;SDS011;5863;52.832;4.758;2024-01-11T10:22:06;21.63;;;14.60;;
11614;SDS011;5863;52.832;4.758;2024-01-11T10:24:37;20.10;;;13.87;;
11614;SDS011;5863;52.832;4.758;2024-01-11T10:27:07;19.80;;;12.67;;
11614;SDS011;5863;52.832;4.758;2024-01-11T10:29:35;17.97;;;11.93;;
11614;SDS011;5863;52.832;4.758;2024-01-11T10:32:03;19.83;;;13.20;;
11614;SDS011;5863;52.832;4.758;2024-01-11T10:34:30;18.27;;;12.17;;
11614;SDS011;5863;52.832;4.758;2024-01-11T10:36:57;20.03;;;12.23;;
11614;SDS011;5863;52.832;4.758;2024-01-11T10:39:24;17.80;;;12.47;;
11614;SDS011;5863;52.832;4.758;2024-01-11T10:41:55;21.30;;;13.43;;
11614;SDS011;5863;52.832;4.758;2024-01-11T10:44:34;19.30;;;13.17;;
11614;SDS011;5863;52.832;4.758;2024-01-11T10:47:02;20.90;;;12.47;;
11614;SDS011;5863;52.832;4.758;2024-01-11T10:49:32;21.50;;;13.13;;
11614;SDS011;5863;52.832;4.758;2024-01-11T10:52:00;20.77;;;13.97;;
11614;SDS011;5863;52.832;4.758;2024-01-11T10:54:30;19.57;;;13.23;;
11614;SDS011;5863;52.832;4.758;2024-01-11T10:57:00;19.20;;;13.43;;
11614;SDS011;5863;52.832;4.758;2024-01-11T10:59:29;20.63;;;13.57;;
11614;SDS011;5863;52.832;4.758;2024-01-11T11:01:59;18.10;;;12.87;;
11614;SDS011;5863;52.832;4.758;2024-01-11T11:04:31;21.03;;;14.17;;
11614;SDS011;5863;52.832;4.758;2024-01-11T11:07:00;18.27;;;12.67;;
11614;SDS011;5863;52.832;4.758;2024-01-11T11:09:28;22.33;;;13.50;;
11614;SDS011;5863;52.832;4.758;2024-01-11T11:11:57;20.30;;;14.07;;
11614;SDS011;5863;52.832;4.758;2024-01-11T11:14:25;21.03;;;13.50;;
11614;SDS011;5863;52.832;4.758;2024-01-11T11:16:52;18.13;;;12.57;;
11614;SDS011;5863;52.832;4.758;2024-01-11T11:19:20;18.97;;;12.43;;
11614;SDS011;5863;52.832;4.758;2024-01-11T11:21:48;18.70;;;12.87;;
11614;SDS011;5863;52.832;4.758;2024-01-11T11:24:16;18.30;;;12.33;;
11614;SDS011;5863;52.832;4.758;2024-01-11T11:26:43;18.03;;;12.67;;
11614;SDS011;5863;52.832;4.758;2024-01-11T11:29:10;19.87;;;10.80;;
11614;SDS011;5863;52.832;4.758;2024-01-11T11:31:38;15.00;;;10.00;;
11614;SDS011;5863;52.832;4.758;2024-01-11T11:34:10;14.83;;;8.53;;
11614;SDS011;5863;52.832;4.758;2024-01-11T11:36:39;13.47;;;7.77;;
11614;SDS011;5863;52.832;4.758;2024-01-11T11:39:09;12.07;;;8.67;;
11614;SDS011;5863;52.832;4.758;2024-01-11T11:41:37;12.53;;;7.37;;
11614;SDS011;5863;52.832;4.758;2024-01-11T11:44:05;9.53;;;6.87;;
11614;SDS011;5863;52.832;4.758;2024-01-11T11:46:32;11.97;;;6.47;;
11614;SDS011;5863;52.832;4.758;2024-01-11T11:48:59;10.97;;;4.80;;
11614;SDS011;5863;52.832;4.758;2024-01-11T11:51:26;10.50;;;5.20;;
11614;SDS011;5863;52.832;4.758;2024-01-11T11:53:55;9.93;;;5.20;;
11614;SDS011;5863;52.832;4.758;2024-01-11T11:56:23;11.57;;;5.00;;
11614;SDS011;5863;52.832;4.758;2024-01-11T11:58:50;7.83;;;3.63;;
11614;SDS011;5863;52.832;4.758;2024-01-11T12:01:19;7.50;;;4.40;;
11614;SDS011;5863;52.832;4.758;2024-01-11T12:03:46;14.63;;;8.10;;
11614;SDS011;5863;52.832;4.758;2024-01-11T12:06:15;14.10;;;8.53;;
11614;SDS011;5863;52.832;4.758;2024-01-11T12:08:43;19.77;;;9.90;;
11614;SDS011;5863;52.832;4.758;2024-01-11T12:11:13;20.27;;;10.77;;
11614;SDS011;5863;52.832;4.758;2024-01-11T12:13:41;16.27;;;9.70;;
11614;SDS011;5863;52.832;4.758;2024-01-11T12:16:09;13.53;;;8.10;;
11614;SDS011;5863;52.832;4.758;2024-01-11T12:18:37;17.40;;;8.17;;
11614;SDS011;5863;52.832;4.758;2024-01-11T12:21:04;16.57;;;8.17;;
11614;SDS011;5863;52.832;4.758;2024-01-11T12:23:34;11.40;;;3.90;;
11614;SDS011;5863;52.832;4.758;2024-01-11T12:26:01;12.60;;;3.53;;
11614;SDS011;5863;52.832;4.758;2024-01-11T12:28:32;14.40;;;3.00;;
11614;SDS011;5863;52.832;4.758;2024-01-11T12:30:59;16.23;;;3.07;;
11614;SDS011;5863;52.832;4.758;2024-01-11T12:33:26;16.37;;;2.90;;
11614;SDS011;5863;52.832;4.758;2024-01-11T12:35:53;18.33;;;3.17;;
11614;SDS011;5863;52.832;4.758;2024-01-11T12:38:20;18.97;;;3.57;;
11614;SDS011;5863;52.832;4.758;2024-01-11T12:40:47;15.53;;;3.10;;
11614;SDS011;5863;52.832;4.758;2024-01-11T12:43:15;18.53;;;3.37;;
11614;SDS011;5863;52.832;4.758;2024-01-11T12:45:44;13.37;;;3.07;;
11614;SDS011;5863;52.832;4.758;2024-01-11T12:48:11;18.00;;;3.27;;
11614;SDS011;5863;52.832;4.758;2024-01-11T12:50:41;17.57;;;3.53;;
11614;SDS011;5863;52.832;4.758;2024-01-11T12:53:08;21.90;;;3.30;;
11614;SDS011;5863;52.832;4.758;2024-01-11T12:55:37;13.80;;;2.83;;
11614;SDS011;5863;52.832;4.758;2024-01-11T12:58:05;18.37;;;3.77;;
11614;SDS011;5863;52.832;4.758;2024-01-11T13:00:34;23.30;;;3.50;;
11614;SDS011;5863;52.832;4.758;2024-01-11T13:03:03;18.17;;;4.00;;
11614;SDS011;5863;52.832;4.758;2024-01-11T13:05:30;17.00;;;3.73;;
11614;SDS011;5863;52.832;4.758;2024-01-11T13:08:00;21.50;;;3.87;;
11614;SDS011;5863;52.832;4.758;2024-01-11T13:10:28;24.03;;;4.03;;
11614;SDS011;5863;52.832;4.758;2024-01-11T13:12:58;12.93;;;3.83;;
11614;SDS011;5863;52.832;4.758;2024-01-11T13:15:25;26.63;;;4.20;;
11614;SDS011;5863;52.832;4.758;2024-01-11T13:17:54;21.60;;;3.47;;
11614;SDS011;5863;52.832;4.758;2024-01-11T13:20:22;19.60;;;4.83;;
11614;SDS011;5863;52.832;4.758;2024-01-11T13:22:49;26.10;;;4.57;;
11614;SDS011;5863;52.832;4.758;2024-01-11T13:25:19;25.13;;;4.37;;
11614;SDS011;5863;52.832;4.758;2024-01-11T13:27:46;24.90;;;4.87;;
11614;SDS011;5863;52.832;4.758;2024-01-11T13:30:14;25.73;;;4.40;;
11614;SDS011;5863;52.832;4.758;2024-01-11T13:32:41;16.40;;;3.77;;
11614;SDS011;5863;52.832;4.758;2024-01-11T13:35:08;22.20;;;3.67;;
11614;SDS011;5863;52.832;4.758;2024-01-11T13:37:36;18.60;;;3.73;;
11614;SDS011;5863;52.832;4.758;2024-01-11T13:40:04;18.57;;;3.33;;
11614;SDS011;5863;52.832;4.758;2024-01-11T13:42:31;20.87;;;3.87;;
11614;SDS011;5863;52.832;4.758;2024-01-11T13:44:58;17.97;;;3.60;;
11614;SDS011;5863;52.832;4.758;2024-01-11T13:47:25;20.83;;;3.80;;
11614;SDS011;5863;52.832;4.758;2024-01-11T13:49:52;22.63;;;3.93;;
11614;SDS011;5863;52.832;4.758;2024-01-11T13:52:19;17.43;;;3.83;;
11614;SDS011;5863;52.832;4.758;2024-01-11T13:54:47;21.00;;;3.93;;
11614;SDS011;5863;52.832;4.758;2024-01-11T13:57:14;20.70;;;4.20;;
11614;SDS011;5863;52.832;4.758;2024-01-11T13:59:40;16.20;;;3.30;;
11614;SDS011;5863;52.832;4.758;2024-01-11T14:02:07;25.73;;;4.20;;
11614;SDS011;5863;52.832;4.758;2024-01-11T14:04:34;17.37;;;4.10;;
11614;SDS011;5863;52.832;4.758;2024-01-11T14:07:01;20.30;;;4.27;;
11614;SDS011;5863;52.832;4.758;2024-01-11T14:09:28;24.90;;;4.67;;
11614;SDS011;5863;52.832;4.758;2024-01-11T14:11:56;26.83;;;4.03;;
11614;SDS011;5863;52.832;4.758;2024-01-11T14:14:23;23.73;;;4.53;;
11614;SDS011;5863;52.832;4.758;2024-01-11T14:16:50;20.57;;;4.17;;
11614;SDS011;5863;52.832;4.758;2024-01-11T14:19:17;24.47;;;4.40;;
11614;SDS011;5863;52.832;4.758;2024-01-11T14:21:44;27.20;;;4.53;;
11614;SDS011;5863;52.832;4.758;2024-01-11T14:24:11;13.27;;;3.77;;
11614;SDS011;5863;52.832;4.758;2024-01-11T14:26:38;23.33;;;3.90;;
11614;SDS011;5863;52.832;4.758;2024-01-11T14:29:06;21.70;;;4.00;;
11614;SDS011;5863;52.832;4.758;2024-01-11T14:31:33;15.03;;;3.90;;
11614;SDS011;5863;52.832;4.758;2024-01-11T14:34:00;31.87;;;4.20;;
11614;SDS011;5863;52.832;4.758;2024-01-11T14:36:27;20.67;;;4.27;;
11614;SDS011;5863;52.832;4.758;2024-01-11T14:38:55;24.30;;;4.30;;